Langnau, Switzerland
Current Conditions -  °F | °C
As of 4:50 AM on Thursday 23 Oct 2014 (Local Time) from LSZB Reporting Station
Overcast Overcast  
Wind Chill: 43°   Ceiling: 4800
Heat Index: 43°   Visibility: 6mi
Dew Point: 37°   Wind: 2mph
Humidity: 81%   Direction: NA
Pressure: 30.27"   Gusts: NA
Location:  46.94°N, 7.77°E
Report Text: LSZB 230250Z AUTO VRB02KT 9999 FEW028 OVC048 BKN060 06/03 Q1025
Loading
Personal Weather Stations






























Interactive Weather Map
Tropical Storm Tracking
New forecast layout! Learn more

10-Day Weather Forecast

Advertisements
Track Severe Weather on mobile